Main page
METAR-TAF:

METAR-TAF

Airports :

Calgary International Airport

Calgary, Alberta, Canada

latitude: 51-07N, longitude: 114-01W, elevation: 1077 m

Current weather observation

The report was made 1 hour and 1 minutes ago, at 21:00 UTC
Wind 2 kt from variable directions
Temperature 20°C
Humidity 35%
Pressure 1020 hPa
Visibility: 64.4 km
Broken clouds at a height of 6200 ft

METAR: CYYC 172100Z VRB02KT 40SM BKN062 20/04 A3012 RMK CU5 SLP209 DENSITY ALT 4800FT

Time: 16:01 (22:01 UTC)

Forecast

The report was made 1 hour and 20 minutes ago, at 20:41 UTC
Forecast valid from 17 at 21 UTC to 18 at 18 UTC
Wind 5 kt from the South
Visibility: 10 km
Broken clouds at a height of 6000 ft
From 18 at 0200 UTC
Wind 8 kt from the South/Southeast
Visibility: 10 km
Clear sky
From 18 at 0900 UTC
Wind 3 kt from variable directions
Visibility: 10 km
Clear sky

TAF: CYYC 172041Z 1721/1818 18005KT P6SM BKN060 FM180200 16008KT P6SM SKC FM180900 VRB03KT P6SM SKC RMK NXT FCST BY 180000Z

Weather observations and forecasts of more than 4000 airports (METAR and TAF reports).

The available stations are represented by yellow and red dots on the map.

Hover mouse over dot to see the name of the station.

Then click to see weather observations and forecasts.

To change the map : click on the green buttons with a black cross to zoom in, on the green button with a dash to zoom out, or on the green arrows for adjacent maps.


METAR-TAF: